Time;durP1;ratioP1;P1;durP2;ratioP2;P2;SDS_P1;SDS_P2;PMS_P1;PMS_P2;Temp;Humidity;BMP_temperature;BMP_pressure;BME280_temperature;BME280_humidity;BME280_pressure;Samples;Min_cycle;Max_cycle;Signal;HPM_P1;HPM_P2
2023/05/20 00:00:50;;;;;;;6.75;2.70;;;;;;;12.75;82.17;102236.31;5010998;28;20117;-64
2023/05/20 00:03:16;;;;;;;5.40;2.03;;;;;;;12.72;83.51;102235.34;5010506;28;20052;-64
2023/05/20 00:05:41;;;;;;;6.47;2.50;;;;;;;12.72;83.69;102237.03;5010863;28;20025;-64
2023/05/20 00:08:08;;;;;;;6.07;2.63;;;;;;;12.69;84.70;102234.31;5010411;28;20036;-65
2023/05/20 00:10:34;;;;;;;6.05;2.67;;;;;;;12.67;84.24;102223.84;5011313;28;20481;-64
2023/05/20 00:12:59;;;;;;;4.97;2.42;;;;;;;12.67;84.17;102230.75;5010758;28;20441;-64
2023/05/20 00:15:25;;;;;;;5.95;2.38;;;;;;;12.64;85.12;102226.31;5006518;28;20611;-64
2023/05/20 00:17:50;;;;;;;4.47;2.63;;;;;;;12.61;85.25;102226.16;5009981;28;20057;-64
2023/05/20 00:20:15;;;;;;;4.57;2.92;;;;;;;12.58;86.25;102231.22;5010726;28;20022;-64
2023/05/20 00:22:41;;;;;;;4.30;3.08;;;;;;;12.55;86.21;102231.06;5010065;28;20127;-64
2023/05/20 00:25:06;;;;;;;7.30;2.60;;;;;;;12.52;87.14;102229.22;5010217;28;20022;-65
2023/05/20 00:27:31;;;;;;;7.68;2.85;;;;;;;12.48;87.96;102230.78;5010088;28;20038;-64
2023/05/20 00:29:57;;;;;;;9.13;3.28;;;;;;;12.43;88.19;102229.69;5010404;28;20120;-63
2023/05/20 00:32:23;;;;;;;5.00;3.20;;;;;;;12.40;88.90;102226.94;5010577;28;20038;-65
2023/05/20 00:34:56;;;;;;;9.05;2.80;;;;;;;12.36;89.25;102227.59;5010168;28;20030;-64
2023/05/20 00:37:22;;;;;;;5.63;2.85;;;;;;;12.35;89.51;102220.66;5009667;28;20508;-64
2023/05/20 00:39:48;;;;;;;4.93;2.85;;;;;;;12.30;90.10;102222.13;5009890;28;20036;-65
2023/05/20 00:42:20;;;;;;;7.97;2.63;;;;;;;12.28;90.61;102218.56;5010544;28;20038;-64
2023/05/20 00:44:45;;;;;;;5.97;3.10;;;;;;;12.25;89.88;102221.91;5009488;28;20022;-64
2023/05/20 00:47:11;;;;;;;5.55;3.10;;;;;;;12.23;91.03;102221.84;5010169;28;20037;-64
2023/05/20 00:49:36;;;;;;;6.22;3.22;;;;;;;12.18;91.46;102215.53;5009969;28;20186;-64
2023/05/20 00:52:02;;;;;;;5.70;3.08;;;;;;;12.17;91.66;102216.38;5009843;28;20531;-65
2023/05/20 00:54:27;;;;;;;6.00;2.47;;;;;;;12.16;91.11;102219.75;5009825;28;20029;-64
2023/05/20 00:56:53;;;;;;;5.53;3.20;;;;;;;12.13;91.27;102214.44;5009296;28;20034;-64
2023/05/20 00:59:18;;;;;;;4.88;2.80;;;;;;;12.11;92.34;102216.06;5010120;28;20049;-64
2023/05/20 01:01:43;;;;;;;7.68;2.65;;;;;;;12.07;92.11;102216.72;5010017;28;20385;-64
2023/05/20 01:04:09;;;;;;;6.10;3.22;;;;;;;12.04;92.61;102213.94;5009415;28;20042;-64
2023/05/20 01:06:36;;;;;;;9.18;3.08;;;;;;;12.03;92.35;102212.19;5009368;28;20029;-64
2023/05/20 01:09:02;;;;;;;7.55;2.90;;;;;;;12.01;93.29;102209.50;5009665;28;20508;-64
2023/05/20 01:11:37;;;;;;;13.13;3.40;;;;;;;11.99;93.14;102211.13;5009018;28;20022;-64
2023/05/20 01:14:07;;;;;;;7.78;3.25;;;;;;;11.96;92.70;102206.69;5009309;28;20120;-64
2023/05/20 01:16:34;;;;;;;5.00;2.53;;;;;;;11.95;94.20;102210.09;5008748;28;20037;-65
2023/05/20 01:19:04;;;;;;;5.80;2.83;;;;;;;11.90;93.98;102203.78;5008804;28;20037;-65
2023/05/20 01:21:31;;;;;;;3.78;2.70;;;;;;;11.87;94.32;102211.44;5009400;28;20025;-64
2023/05/20 01:23:56;;;;;;;5.20;2.80;;;;;;;11.85;93.93;102207.88;5009017;28;20026;-64
2023/05/20 01:26:25;;;;;;;7.00;3.22;;;;;;;11.82;95.09;102202.53;5008752;28;20036;-65
2023/05/20 01:28:51;;;;;;;5.55;3.28;;;;;;;11.76;95.39;102205.72;5009427;28;20036;-64
2023/05/20 01:31:24;;;;;;;7.90;3.25;;;;;;;11.73;96.02;102201.25;5009310;28;20030;-64
2023/05/20 01:33:55;;;;;;;5.03;3.20;;;;;;;11.70;96.43;102203.72;5008987;28;20484;-64
2023/05/20 01:36:21;;;;;;;6.35;3.10;;;;;;;11.69;96.94;102204.53;5008518;28;20061;-65
2023/05/20 01:38:48;;;;;;;5.82;3.67;;;;;;;11.68;96.46;102194.06;5008513;28;20129;-64
2023/05/20 01:41:13;;;;;;;5.70;3.25;;;;;;;11.63;96.71;102197.34;4989206;28;20032;-64
2023/05/20 01:43:39;;;;;;;4.40;3.30;;;;;;;11.62;97.51;102194.66;5007173;28;20030;-65
2023/05/20 01:46:05;;;;;;;6.18;3.30;;;;;;;11.58;97.94;102184.94;5007445;28;21263;-65
2023/05/20 01:48:31;;;;;;;6.13;3.70;;;;;;;11.56;98.18;102190.06;5007445;28;20391;-64
2023/05/20 01:50:56;;;;;;;6.10;3.55;;;;;;;11.55;98.59;102192.59;5006788;28;20026;-65
2023/05/20 01:53:21;;;;;;;5.47;3.50;;;;;;;11.50;99.08;102189.75;5007306;28;20030;-65
2023/05/20 01:55:47;;;;;;;6.35;3.67;;;;;;;11.45;99.29;102184.34;5007520;28;20049;-64
2023/05/20 01:58:12;;;;;;;5.63;3.40;;;;;;;11.43;100.00;102191.16;5009201;28;20540;-64
2023/05/20 02:00:37;;;;;;;10.70;3.53;;;;;;;11.39;100.00;102184.00;5008273;28;20030;-65
2023/05/20 02:03:03;;;;;;;8.45;3.45;;;;;;;11.35;100.00;102179.50;5008299;28;20498;-64
2023/05/20 02:05:29;;;;;;;5.82;3.80;;;;;;;11.34;100.00;102188.97;5008842;28;20025;-64
2023/05/20 02:07:54;;;;;;;7.00;4.22;;;;;;;11.33;100.00;102181.13;5008606;28;20037;-64
2023/05/20 02:10:20;;;;;;;6.60;4.05;;;;;;;11.32;100.00;102187.09;5008374;28;20041;-64
2023/05/20 02:12:46;;;;;;;6.10;3.90;;;;;;;11.29;100.00;102186.16;5008598;28;20034;-64
2023/05/20 02:15:12;;;;;;;6.20;3.53;;;;;;;11.25;100.00;102188.50;5007977;28;20037;-64
2023/05/20 02:17:38;;;;;;;7.43;3.58;;;;;;;11.22;100.00;102184.06;5008370;28;20026;-64
2023/05/20 02:20:05;;;;;;;7.75;3.97;;;;;;;11.19;100.00;102177.84;5008504;28;20105;-64
2023/05/20 02:22:30;;;;;;;15.98;4.22;;;;;;;11.15;100.00;102189.75;5008404;28;20140;-64
2023/05/20 02:24:56;;;;;;;5.97;3.58;;;;;;;11.13;100.00;102183.59;5007926;28;20435;-65
2023/05/20 02:27:21;;;;;;;6.97;3.25;;;;;;;11.10;100.00;102180.84;5001837;28;20026;-64
2023/05/20 02:29:46;;;;;;;6.28;4.07;;;;;;;11.07;100.00;102183.25;5008010;28;20083;-64
2023/05/20 02:32:11;;;;;;;8.00;3.97;;;;;;;11.03;100.00;102177.03;5008429;28;20390;-65
2023/05/20 02:34:37;;;;;;;6.25;3.78;;;;;;;11.02;100.00;102181.34;5008278;28;20030;-64
2023/05/20 02:37:03;;;;;;;7.30;4.22;;;;;;;10.99;100.00;102170.78;5008194;28;20034;-64
2023/05/20 02:39:28;;;;;;;6.25;3.63;;;;;;;10.94;100.00;102177.44;5006582;28;20034;-64
2023/05/20 02:41:53;;;;;;;5.05;3.83;;;;;;;10.92;100.00;102172.19;4996313;28;20037;-64
2023/05/20 02:44:19;;;;;;;6.88;3.78;;;;;;;10.91;100.00;102182.47;5008064;28;20409;-64
2023/05/20 02:46:44;;;;;;;6.32;4.50;;;;;;;10.90;100.00;102173.78;5008325;28;20057;-64
2023/05/20 02:49:10;;;;;;;7.95;3.97;;;;;;;10.90;100.00;102180.72;5007562;28;20405;-65
2023/05/20 02:51:35;;;;;;;6.95;4.35;;;;;;;10.89;100.00;102169.44;5007767;28;20036;-65
2023/05/20 02:54:01;;;;;;;7.50;3.90;;;;;;;10.89;100.00;102171.13;5008125;28;20027;-64
2023/05/20 02:56:27;;;;;;;6.80;4.30;;;;;;;10.86;100.00;102168.38;5007888;28;20498;-65
2023/05/20 02:58:52;;;;;;;5.97;4.47;;;;;;;10.84;100.00;102170.00;5007817;28;20112;-65
2023/05/20 03:01:18;;;;;;;7.30;4.10;;;;;;;10.80;100.00;102164.66;5007596;28;20133;-65
2023/05/20 03:03:43;;;;;;;8.50;4.63;;;;;;;10.78;100.00;102179.25;5007436;28;20416;-65
2023/05/20 03:06:08;;;;;;;9.30;4.45;;;;;;;10.77;100.00;102169.69;5008110;28;20033;-65
2023/05/20 03:08:35;;;;;;;8.27;4.68;;;;;;;10.75;100.00;102170.41;5006874;28;20665;-65
2023/05/20 03:11:00;;;;;;;5.57;4.10;;;;;;;10.71;100.00;102169.34;5007875;28;20326;-67
2023/05/20 03:13:25;;;;;;;5.57;4.13;;;;;;;10.69;100.00;102165.78;5007672;28;20394;-64
2023/05/20 03:15:51;;;;;;;6.25;4.20;;;;;;;10.66;100.00;102160.44;5007610;28;20030;-66
2023/05/20 03:18:17;;;;;;;8.27;4.32;;;;;;;10.61;100.00;102162.81;5007445;28;20038;-65
2023/05/20 03:20:42;;;;;;;7.13;4.60;;;;;;;10.59;100.00;102168.72;5007330;28;20543;-65
2023/05/20 03:23:08;;;;;;;10.15;4.50;;;;;;;10.55;100.00;102163.38;5007524;28;20053;-66
2023/05/20 03:25:33;;;;;;;6.88;4.78;;;;;;;10.54;100.00;102158.97;5008031;28;20397;-65
2023/05/20 03:28:00;;;;;;;6.60;4.95;;;;;;;10.52;100.00;102162.31;5007409;28;20523;-65
2023/05/20 03:30:26;;;;;;;6.75;4.03;;;;;;;10.50;100.00;102164.81;5007149;28;20104;-65
2023/05/20 03:32:53;;;;;;;6.90;4.88;;;;;;;10.48;100.00;102162.94;5005972;28;20033;-65
2023/05/20 03:35:18;;;;;;;6.57;4.38;;;;;;;10.45;100.00;102171.44;5008943;28;20038;-66
2023/05/20 03:37:43;;;;;;;8.18;4.55;;;;;;;10.41;100.00;102170.38;4997022;28;20025;-64
2023/05/20 03:40:09;;;;;;;6.60;4.68;;;;;;;10.39;100.00;102171.09;5009799;28;20117;-64
2023/05/20 03:42:35;;;;;;;4.47;4.07;;;;;;;10.37;100.00;102167.50;5009339;28;20081;-66
2023/05/20 03:45:01;;;;;;;6.90;4.63;;;;;;;10.35;100.00;102163.94;5009578;28;20025;-66
2023/05/20 03:47:27;;;;;;;5.45;4.50;;;;;;;10.31;100.00;102168.97;5009104;28;20108;-66
2023/05/20 03:49:52;;;;;;;6.25;4.45;;;;;;;10.29;100.00;102168.00;5010489;28;20022;-65
2023/05/20 03:52:18;;;;;;;5.80;4.90;;;;;;;10.28;100.00;102160.13;5011068;28;20425;-65
2023/05/20 03:54:43;;;;;;;8.50;5.20;;;;;;;10.26;100.00;102164.34;5011033;28;20017;-64
2023/05/20 03:57:09;;;;;;;5.55;4.22;;;;;;;10.24;100.00;102161.66;5011041;28;20032;-65
2023/05/20 03:59:35;;;;;;;8.48;4.45;;;;;;;10.23;100.00;102161.59;5011142;28;20445;-64
2023/05/20 04:02:01;;;;;;;8.65;4.88;;;;;;;10.23;100.00;102165.09;5010678;28;20030;-65
2023/05/20 04:04:26;;;;;;;9.77;5.20;;;;;;;10.23;100.00;102159.91;5010414;28;20046;-64
2023/05/20 04:06:53;;;;;;;6.40;4.97;;;;;;;10.20;100.00;102157.13;5010330;28;20033;-64
2023/05/20 04:09:18;;;;;;;12.25;5.00;;;;;;;10.18;100.00;102162.22;5010541;28;20022;-64
2023/05/20 04:11:45;;;;;;;9.48;4.72;;;;;;;10.19;100.00;102163.13;5011094;28;20076;-65
2023/05/20 04:14:10;;;;;;;6.38;5.03;;;;;;;10.19;100.00;102157.94;5010299;28;20393;-66
2023/05/20 04:16:36;;;;;;;5.85;4.40;;;;;;;10.19;100.00;102168.31;5010309;28;20025;-65
2023/05/20 04:19:02;;;;;;;7.10;4.35;;;;;;;10.19;100.00;102169.19;5011037;28;20283;-65
2023/05/20 04:21:27;;;;;;;7.90;4.45;;;;;;;10.18;100.00;102169.13;5011086;28;20104;-64
2023/05/20 04:23:53;;;;;;;6.00;4.75;;;;;;;10.18;100.00;102175.16;5010599;28;20093;-64
2023/05/20 04:26:19;;;;;;;7.55;4.97;;;;;;;10.20;100.00;102170.97;5010131;28;20040;-65
2023/05/20 04:28:47;;;;;;;5.70;4.47;;;;;;;10.23;100.00;102174.53;5010615;28;20474;-64
2023/05/20 04:31:12;;;;;;;8.45;4.72;;;;;;;10.24;100.00;102172.03;5010250;28;20029;-66
2023/05/20 04:33:38;;;;;;;9.85;4.45;;;;;;;10.27;100.00;102169.59;5010153;28;20425;-65
2023/05/20 04:36:14;;;;;;;8.35;4.75;;;;;;;10.29;100.00;102170.59;5010060;28;20069;-64
2023/05/20 04:38:41;;;;;;;6.68;4.80;;;;;;;10.32;100.00;102170.78;4999037;28;20045;-66
2023/05/20 04:41:06;;;;;;;8.40;4.85;;;;;;;10.35;100.00;102169.13;5010027;28;20088;-66
2023/05/20 04:43:32;;;;;;;9.20;4.97;;;;;;;10.37;100.00;102165.81;5010128;28;20034;-64
2023/05/20 04:46:04;;;;;;;6.80;5.00;;;;;;;10.39;100.00;102166.81;5009156;28;20369;-64
2023/05/20 04:48:31;;;;;;;7.38;5.38;;;;;;;10.43;100.00;102163.56;5009973;28;20032;-65
2023/05/20 04:50:56;;;;;;;9.63;5.07;;;;;;;10.48;100.00;102166.44;5009430;28;20026;-64
2023/05/20 04:53:22;;;;;;;7.05;4.68;;;;;;;10.53;100.00;102175.34;5010252;28;20079;-65
2023/05/20 04:55:48;;;;;;;6.00;4.35;;;;;;;10.59;100.00;102174.78;5009553;28;20554;-64
2023/05/20 04:58:16;;;;;;;7.38;4.97;;;;;;;10.65;100.00;102175.09;5010458;28;20018;-65
2023/05/20 05:00:41;;;;;;;6.20;4.82;;;;;;;10.71;100.00;102166.75;5009812;28;20038;-66
2023/05/20 05:03:07;;;;;;;7.68;4.82;;;;;;;10.77;100.00;102174.88;5009990;28;20056;-64
2023/05/20 05:05:36;;;;;;;11.55;4.93;;;;;;;10.85;100.00;102166.63;5009193;28;20036;-64
2023/05/20 05:08:02;;;;;;;6.88;4.75;;;;;;;10.91;100.00;102162.63;5010177;28;20032;-64
2023/05/20 05:10:28;;;;;;;7.45;5.47;;;;;;;10.97;100.00;102167.25;5008967;28;21252;-65
2023/05/20 05:12:53;;;;;;;7.07;4.75;;;;;;;11.03;100.00;102167.56;5009696;28;20575;-65
2023/05/20 05:15:18;;;;;;;6.72;4.88;;;;;;;11.10;100.00;102153.19;5009465;28;20413;-64
2023/05/20 05:17:44;;;;;;;7.05;4.95;;;;;;;11.18;100.00;102156.19;5009695;28;20022;-64
2023/05/20 05:20:10;;;;;;;7.43;5.05;;;;;;;11.26;100.00;102149.66;5009288;28;20014;-64
2023/05/20 05:22:35;;;;;;;6.13;4.97;;;;;;;11.34;100.00;102152.66;5010004;28;20446;-64
2023/05/20 05:25:02;;;;;;;7.40;4.80;;;;;;;11.43;100.00;102159.09;5009693;28;20029;-66
2023/05/20 05:27:27;;;;;;;7.13;5.00;;;;;;;11.49;100.00;102147.34;5009671;28;20053;-64
2023/05/20 05:29:52;;;;;;;5.82;4.38;;;;;;;11.57;100.00;102147.69;5008681;28;20061;-64
2023/05/20 05:32:18;;;;;;;6.43;4.75;;;;;;;11.67;100.00;102156.84;5009447;28;20033;-65
2023/05/20 05:34:44;;;;;;;8.48;5.45;;;;;;;11.75;100.00;102147.69;5008949;28;20021;-65
2023/05/20 05:37:10;;;;;;;7.30;4.75;;;;;;;11.84;100.00;102152.44;5009085;28;20025;-65
2023/05/20 05:39:36;;;;;;;7.88;5.15;;;;;;;11.94;100.00;102146.00;5007046;28;20101;-64
2023/05/20 05:42:02;;;;;;;7.13;5.13;;;;;;;12.02;100.00;102154.13;4999165;28;20033;-66
2023/05/20 05:44:27;;;;;;;6.15;4.43;;;;;;;12.11;100.00;102157.19;5009128;28;20021;-64
2023/05/20 05:46:53;;;;;;;7.30;4.80;;;;;;;12.20;100.00;102148.03;5007539;28;20040;-64
2023/05/20 05:49:18;;;;;;;6.68;4.90;;;;;;;12.27;100.00;102144.03;5009269;28;20029;-64
2023/05/20 05:51:43;;;;;;;5.65;4.00;;;;;;;12.38;100.00;102142.78;5008116;28;20028;-64
2023/05/20 05:54:09;;;;;;;6.10;4.25;;;;;;;12.47;100.00;102147.53;5008644;28;20032;-65
2023/05/20 05:56:34;;;;;;;5.82;4.30;;;;;;;12.58;100.00;102153.22;4989899;28;20338;-65
2023/05/20 05:58:59;;;;;;;8.85;4.70;;;;;;;12.70;100.00;102152.88;5009152;28;20431;-65
2023/05/20 06:01:25;;;;;;;5.82;3.95;;;;;;;12.85;100.00;102152.66;5008650;28;20033;-64
2023/05/20 06:03:50;;;;;;;6.38;4.65;;;;;;;13.00;100.00;102151.53;5008325;28;20042;-64
2023/05/20 06:06:15;;;;;;;5.03;4.18;;;;;;;13.16;100.00;102147.88;5008345;28;20561;-64
2023/05/20 06:08:41;;;;;;;5.03;4.10;;;;;;;13.29;100.00;102147.53;5008794;28;20080;-65
2023/05/20 06:11:06;;;;;;;7.45;4.43;;;;;;;13.38;100.00;102144.47;5008456;28;20474;-65
2023/05/20 06:13:31;;;;;;;6.28;3.97;;;;;;;13.51;99.53;102144.97;5008815;28;20088;-64
2023/05/20 06:15:56;;;;;;;5.53;3.92;;;;;;;13.64;100.00;102147.25;5008872;28;20512;-64
2023/05/20 06:18:22;;;;;;;5.78;3.60;;;;;;;13.80;100.00;102146.16;5007915;28;20216;-64
2023/05/20 06:20:54;;;;;;;6.13;3.63;;;;;;;13.96;97.71;102140.66;5007349;28;20177;-65
2023/05/20 06:23:19;;;;;;;5.95;3.80;;;;;;;14.08;96.61;102132.41;5006988;28;20025;-64
2023/05/20 06:25:45;;;;;;;4.45;3.13;;;;;;;14.21;96.17;102132.03;5008276;28;20018;-64
2023/05/20 06:28:11;;;;;;;6.18;4.30;;;;;;;14.35;95.82;102140.41;5008374;28;20057;-64
2023/05/20 06:30:36;;;;;;;6.90;3.78;;;;;;;14.49;94.72;102133.09;5008254;28;20049;-66
2023/05/20 06:33:02;;;;;;;4.65;3.50;;;;;;;14.62;93.63;102123.97;5007881;28;20042;-66
2023/05/20 06:35:27;;;;;;;5.85;3.30;;;;;;;14.79;93.68;102122.81;5008368;28;20494;-64
2023/05/20 06:37:52;;;;;;;4.82;3.60;;;;;;;14.94;91.66;102117.25;5008363;28;20054;-65
2023/05/20 06:40:18;;;;;;;5.25;3.60;;;;;;;15.08;90.17;102118.59;5008545;28;20036;-65
2023/05/20 06:42:43;;;;;;;3.90;3.33;;;;;;;15.24;90.32;102125.22;5007738;28;20033;-65
2023/05/20 06:45:09;;;;;;;6.47;3.75;;;;;;;15.40;87.68;102119.63;5008676;28;20344;-65
2023/05/20 06:47:35;;;;;;;4.85;3.17;;;;;;;15.54;84.22;102122.69;5008504;28;20032;-64
2023/05/20 06:50:00;;;;;;;10.55;3.83;;;;;;;15.61;82.86;102114.19;5008366;28;20026;-66
2023/05/20 06:52:25;;;;;;;3.70;3.15;;;;;;;15.74;83.78;102118.06;5007951;28;20563;-65
2023/05/20 06:54:50;;;;;;;6.97;3.80;;;;;;;15.90;83.09;102106.34;5007672;28;20025;-66
2023/05/20 06:57:16;;;;;;;5.95;3.53;;;;;;;16.03;80.34;102110.25;5008003;28;20029;-65
2023/05/20 06:59:41;;;;;;;3.20;2.90;;;;;;;16.21;80.47;102111.63;5008179;28;20014;-65
2023/05/20 07:02:06;;;;;;;4.38;3.13;;;;;;;16.37;79.06;102106.84;5007046;28;20028;-64
2023/05/20 07:04:32;;;;;;;3.90;3.35;;;;;;;16.54;78.46;102116.03;5008335;28;20018;-64
2023/05/20 07:06:57;;;;;;;3.80;2.95;;;;;;;16.66;75.43;102105.00;5008119;28;20097;-65
2023/05/20 07:09:22;;;;;;;5.22;3.00;;;;;;;16.67;73.85;102098.06;5004933;28;20105;-66
2023/05/20 07:11:49;;;;;;;3.90;3.00;;;;;;;16.85;76.21;102099.38;4993181;28;20198;-65
2023/05/20 07:14:14;;;;;;;3.53;2.70;;;;;;;16.94;73.59;102097.00;5011623;28;20466;-65
2023/05/20 07:16:40;;;;;;;6.72;3.22;;;;;;;17.09;73.54;102109.59;5011734;28;20087;-65
2023/05/20 07:19:05;;;;;;;4.57;2.88;;;;;;;17.25;74.18;102100.41;5011742;28;20087;-65
2023/05/20 07:21:30;;;;;;;4.68;2.70;;;;;;;17.35;69.92;102105.88;5012224;28;20033;-66
2023/05/20 07:23:56;;;;;;;4.78;3.00;;;;;;;17.36;70.01;102094.56;5010175;28;20022;-65
2023/05/20 07:26:21;;;;;;;4.80;3.00;;;;;;;17.47;70.39;102097.41;5011757;28;20053;-66
2023/05/20 07:28:46;;;;;;;4.63;2.50;;;;;;;17.77;71.14;102096.34;5010877;28;20409;-66
2023/05/20 07:31:12;;;;;;;3.83;2.65;;;;;;;17.95;68.01;102097.59;5012053;28;20037;-65
2023/05/20 07:33:38;;;;;;;9.25;3.20;;;;;;;17.96;67.01;102104.59;5012045;28;20033;-65
2023/05/20 07:36:03;;;;;;;5.00;2.85;;;;;;;18.21;68.20;102089.41;5011539;28;20026;-64
2023/05/20 07:38:28;;;;;;;3.78;2.83;;;;;;;18.30;63.37;102088.69;5011231;28;20017;-65
2023/05/20 07:40:54;;;;;;;3.28;2.50;;;;;;;18.36;62.66;102094.06;5011675;28;20505;-65
2023/05/20 07:43:19;;;;;;;3.33;2.65;;;;;;;18.47;61.64;102089.91;5011689;28;20036;-66
2023/05/20 07:45:44;;;;;;;3.85;2.60;;;;;;;18.50;62.09;102090.81;5011615;28;20026;-65
2023/05/20 07:48:11;;;;;;;5.07;3.38;;;;;;;18.58;61.96;102078.75;5010686;28;20029;-66
2023/05/20 07:50:38;;;;;;;4.03;2.97;;;;;;;18.66;62.31;102079.75;5011858;28;20485;-65
2023/05/20 07:53:05;;;;;;;3.05;2.75;;;;;;;18.80;60.86;102074.75;5011505;28;20029;-64
2023/05/20 07:55:34;;;;;;;3.75;2.70;;;;;;;18.98;60.97;102077.66;4993538;28;20030;-65
2023/05/20 07:57:59;;;;;;;6.38;2.70;;;;;;;19.05;58.84;102084.78;5011188;28;20455;-65
2023/05/20 08:00:25;;;;;;;3.28;2.30;;;;;;;19.08;59.01;102087.47;5011310;28;20045;-65
2023/05/20 08:02:50;;;;;;;7.43;2.90;;;;;;;19.01;57.08;102075.09;5010422;28;20469;-65
2023/05/20 08:05:16;;;;;;;4.82;2.90;;;;;;;18.66;58.26;102064.00;5011328;28;20030;-65
2023/05/20 08:07:41;;;;;;;4.68;3.35;;;;;;;18.90;61.14;102070.53;5010749;28;20096;-66
2023/05/20 08:10:07;;;;;;;4.47;2.60;;;;;;;19.16;60.79;102077.97;5011721;28;20095;-66
2023/05/20 08:12:32;;;;;;;4.72;2.72;;;;;;;19.35;57.52;102069.50;5010614;28;20026;-66
2023/05/20 08:14:57;;;;;;;4.88;2.50;;;;;;;19.49;56.48;102070.59;5010762;28;20038;-65
2023/05/20 08:17:23;;;;;;;4.32;2.63;;;;;;;19.64;57.39;102054.16;5010568;28;20025;-64
2023/05/20 08:19:48;;;;;;;3.05;2.40;;;;;;;19.71;55.51;102060.38;5010198;28;20026;-65
2023/05/20 08:22:13;;;;;;;4.75;2.38;;;;;;;19.79;56.81;102052.56;5010377;28;20064;-66
2023/05/20 08:24:39;;;;;;;2.78;2.45;;;;;;;19.87;53.96;102057.94;5010531;28;20030;-65
2023/05/20 08:27:04;;;;;;;4.55;2.50;;;;;;;19.92;53.79;102059.75;5010282;28;20062;-65
2023/05/20 08:29:29;;;;;;;5.45;2.42;;;;;;;20.12;57.13;102059.16;5011038;28;20025;-65
2023/05/20 08:31:56;;;;;;;5.90;2.85;;;;;;;20.33;54.95;102068.13;5010533;28;20033;-65
2023/05/20 08:34:21;;;;;;;7.60;2.63;;;;;;;20.17;52.90;102051.28;5010278;28;20053;-67
2023/05/20 08:36:46;;;;;;;3.22;2.63;;;;;;;20.02;53.58;102055.47;5009841;28;20068;-65
2023/05/20 08:39:12;;;;;;;4.82;2.85;;;;;;;20.08;52.57;102054.69;5009326;28;20386;-65
2023/05/20 08:41:38;;;;;;;4.68;2.75;;;;;;;20.08;54.26;102054.69;5010053;28;20022;-65
2023/05/20 08:44:04;;;;;;;4.45;3.00;;;;;;;20.34;53.86;102040.97;5009826;28;20029;-65
2023/05/20 08:46:33;;;;;;;4.22;2.60;;;;;;;20.56;53.69;102035.88;5010166;28;20021;-65
2023/05/20 08:48:58;;;;;;;4.18;2.53;;;;;;;20.70;52.56;102040.41;4997832;28;20085;-66
2023/05/20 08:51:26;;;;;;;4.53;2.50;;;;;;;20.77;51.19;102042.22;4996475;28;20026;-64
2023/05/20 08:53:52;;;;;;;4.22;2.55;;;;;;;20.88;51.85;102030.00;5010458;28;20017;-64
2023/05/20 08:56:20;;;;;;;2.83;2.50;;;;;;;20.94;51.15;102045.00;5009928;28;20030;-67
2023/05/20 08:58:46;;;;;;;5.25;3.20;;;;;;;20.92;52.82;102032.69;5009691;28;20032;-65
2023/05/20 09:01:11;;;;;;;5.18;2.58;;;;;;;20.91;51.75;102037.06;5010078;28;20474;-65
2023/05/20 09:03:37;;;;;;;4.00;2.78;;;;;;;20.81;50.98;102037.84;5009870;28;20050;-65
2023/05/20 09:06:04;;;;;;;2.33;2.08;;;;;;;20.92;50.08;102027.41;5009732;28;20030;-66
2023/05/20 09:08:29;;;;;;;2.67;2.22;;;;;;;20.91;48.43;102039.69;5009704;28;20482;-64
2023/05/20 09:10:55;;;;;;;2.38;2.17;;;;;;;20.87;48.39;102025.59;5009316;28;20432;-65
2023/05/20 09:13:22;;;;;;;1.67;1.58;;;;;;;20.95;49.59;102040.63;5007746;28;20571;-65
2023/05/20 09:15:47;;;;;;;2.53;1.95;;;;;;;20.85;46.84;102026.47;5006876;28;20024;-64
2023/05/20 09:18:12;;;;;;;1.95;1.58;;;;;;;20.84;46.51;102024.69;5009515;28;20037;-66
2023/05/20 09:20:39;;;;;;;2.72;1.85;;;;;;;20.67;47.35;102028.06;5009158;28;20029;-64
2023/05/20 09:23:07;;;;;;;3.42;2.17;;;;;;;20.54;49.23;102031.47;5009243;28;20069;-65
2023/05/20 09:25:33;;;;;;;4.20;1.90;;;;;;;20.67;49.02;102021.94;5009704;28;20071;-64
2023/05/20 09:27:58;;;;;;;3.13;1.90;;;;;;;20.47;48.84;102027.91;5009642;28;20469;-64
2023/05/20 09:30:23;;;;;;;5.53;2.00;;;;;;;20.48;48.83;102011.25;5008705;28;20025;-65
2023/05/20 09:32:59;;;;;;;4.07;2.33;;;;;;;20.37;50.50;102016.41;5008813;28;20034;-64
2023/05/20 09:35:26;;;;;;;3.90;2.08;;;;;;;20.38;49.46;102028.72;5001850;28;20033;-65
2023/05/20 09:37:55;;;;;;;5.13;2.75;;;;;;;20.37;50.26;102025.19;5009067;28;20108;-64
2023/05/20 09:40:25;;;;;;;1.92;1.73;;;;;;;20.32;50.60;102026.91;5009061;28;20040;-65
2023/05/20 09:43:01;;;;;;;5.37;2.00;;;;;;;20.27;50.96;102018.06;5007102;28;20037;-65
2023/05/20 09:45:27;;;;;;;2.95;2.13;;;;;;;20.56;51.79;101999.00;5007058;28;20029;-65
2023/05/20 09:47:53;;;;;;;3.45;2.30;;;;;;;20.72;52.33;102012.31;5003418;28;20026;-65
2023/05/20 09:50:20;;;;;;;3.33;2.35;;;;;;;20.88;49.69;102019.47;5007247;28;20026;-65
2023/05/20 09:52:47;;;;;;;5.28;2.10;;;;;;;21.14;50.36;102024.97;5004988;28;20054;-65
2023/05/20 09:55:14;;;;;;;2.53;2.25;;;;;;;21.31;48.67;102025.94;5003324;28;20485;-64
2023/05/20 09:57:39;;;;;;;3.15;2.38;;;;;;;21.26;48.52;102026.78;5007965;28;20044;-65
2023/05/20 10:00:05;;;;;;;2.33;2.13;;;;;;;21.29;49.96;102025.03;4990850;28;20538;-65
2023/05/20 10:02:33;;;;;;;7.43;2.38;;;;;;;21.38;48.90;102015.41;5006730;28;20041;-65
2023/05/20 10:05:03;;;;;;;3.17;2.30;;;;;;;21.30;48.57;102012.75;5006123;28;20033;-66
2023/05/20 10:07:50;;;;;;;3.30;2.05;;;;;;;21.06;47.72;102009.09;5007105;28;20037;-65
2023/05/20 10:10:42;;;;;;;5.05;2.20;;;;;;;20.68;49.85;101994.72;5006691;28;20022;-65
2023/05/20 10:13:49;;;;;;;3.00;2.10;;;;;;;20.66;49.77;101993.84;5006335;28;20029;-66
2023/05/20 10:16:52;;;;;;;2.95;2.08;;;;;;;20.67;48.89;101985.94;4993760;28;20038;-65
2023/05/20 10:19:29;;;;;;;3.88;2.20;;;;;;;20.98;52.59;101985.31;5007107;28;20043;-65
2023/05/20 10:22:03;;;;;;;3.58;2.40;;;;;;;21.10;48.32;101985.38;5008665;28;20030;-65
2023/05/20 10:24:42;;;;;;;3.85;1.80;;;;;;;21.26;49.53;101985.50;5006995;28;20042;-65
2023/05/20 10:27:14;;;;;;;1.52;1.38;;;;;;;21.42;48.61;101982.94;5006778;28;20029;-65
2023/05/20 10:29:51;;;;;;;2.75;2.08;;;;;;;21.41;47.68;101989.94;5006902;28;20448;-65
2023/05/20 10:32:55;;;;;;;3.00;1.90;;;;;;;21.43;46.48;101974.13;5005626;28;20053;-65
2023/05/20 10:35:25;;;;;;;3.40;1.90;;;;;;;21.42;47.70;101975.03;4978050;28;20133;-65
2023/05/20 10:37:51;;;;;;;1.60;1.50;;;;;;;21.46;47.64;101984.72;5006026;28;20026;-65
2023/05/20 10:40:18;;;;;;;2.20;1.83;;;;;;;21.32;46.82;101980.25;5007966;28;20279;-65
2023/05/20 10:42:44;;;;;;;5.45;1.80;;;;;;;21.47;47.95;101975.91;5007743;28;20033;-65
2023/05/20 10:45:10;;;;;;;3.20;2.20;;;;;;;21.43;46.72;101966.22;5008084;28;20026;-65
2023/05/20 10:47:40;;;;;;;2.05;1.80;;;;;;;21.40;47.96;101958.31;5008158;28;20029;-66
2023/05/20 10:50:06;;;;;;;3.67;2.03;;;;;;;21.28;47.11;101959.16;5007969;28;20057;-65
2023/05/20 10:52:35;;;;;;;2.92;2.13;;;;;;;21.07;47.59;101972.22;5007953;28;20064;-66
2023/05/20 10:55:02;;;;;;;2.25;1.95;;;;;;;20.91;48.18;101967.69;5007642;28;20040;-66
2023/05/20 10:57:28;;;;;;;2.53;1.83;;;;;;;20.71;49.38;101961.41;5008098;28;20465;-65
2023/05/20 10:59:54;;;;;;;3.28;2.50;;;;;;;20.61;49.48;101962.22;4999452;28;20018;-65
2023/05/20 11:02:25;;;;;;;3.35;2.17;;;;;;;20.60;53.01;101953.44;4984789;28;20022;-65
2023/05/20 11:04:51;;;;;;;;;;;;;;;20.66;50.93;101956.97;5008728;28;20358;-66
2023/05/20 11:07:30;;;;;;;2.63;2.05;;;;;;;20.96;53.50;101935.25;4990200;28;19919;-64
2023/05/20 11:09:56;;;;;;;3.83;1.80;;;;;;;21.28;50.66;101945.97;5008078;28;20033;-65
2023/05/20 11:12:26;;;;;;;4.10;1.77;;;;;;;21.39;49.40;101948.66;5007590;28;20384;-66
2023/05/20 11:14:51;;;;;;;1.75;1.65;;;;;;;21.45;49.53;101938.13;5007930;28;20033;-65
2023/05/20 11:17:18;;;;;;;5.10;2.28;;;;;;;21.41;49.22;101936.34;5007966;28;20068;-65
2023/05/20 11:19:43;;;;;;;3.97;1.75;;;;;;;21.60;49.84;101929.41;5007525;28;20113;-65